sensor_id;sensor_type;location;lat;lon;timestamp;P1;durP1;ratioP1;P2;durP2;ratioP2
32533;SDS011;18973;48.580;8.912;2022-12-29T00:01:54;1.25;;;1.25;;
32533;SDS011;18973;48.580;8.912;2022-12-29T00:04:20;13.45;;;6.70;;
32533;SDS011;18973;48.580;8.912;2022-12-29T00:06:46;4.75;;;3.08;;
32533;SDS011;18973;48.580;8.912;2022-12-29T00:09:13;2.20;;;1.88;;
32533;SDS011;18973;48.580;8.912;2022-12-29T00:11:41;11.10;;;5.28;;
32533;SDS011;18973;48.580;8.912;2022-12-29T00:14:10;1.67;;;1.50;;
32533;SDS011;18973;48.580;8.912;2022-12-29T00:16:55;1.23;;;1.13;;
32533;SDS011;18973;48.580;8.912;2022-12-29T00:19:21;0.75;;;0.75;;
32533;SDS011;18973;48.580;8.912;2022-12-29T00:22:07;1.10;;;1.10;;
32533;SDS011;18973;48.580;8.912;2022-12-29T00:24:53;1.10;;;1.10;;
32533;SDS011;18973;48.580;8.912;2022-12-29T00:27:34;0.90;;;0.90;;
32533;SDS011;18973;48.580;8.912;2022-12-29T00:30:22;2.90;;;1.45;;
32533;SDS011;18973;48.580;8.912;2022-12-29T00:33:16;1.05;;;1.00;;
32533;SDS011;18973;48.580;8.912;2022-12-29T00:36:11;4.75;;;1.27;;
32533;SDS011;18973;48.580;8.912;2022-12-29T00:38:55;0.90;;;0.90;;
32533;SDS011;18973;48.580;8.912;2022-12-29T00:41:45;1.15;;;1.08;;
32533;SDS011;18973;48.580;8.912;2022-12-29T00:44:31;1.08;;;1.08;;
32533;SDS011;18973;48.580;8.912;2022-12-29T00:46:57;0.90;;;0.90;;
32533;SDS011;18973;48.580;8.912;2022-12-29T00:49:27;1.45;;;1.30;;
32533;SDS011;18973;48.580;8.912;2022-12-29T00:51:57;0.80;;;0.80;;
32533;SDS011;18973;48.580;8.912;2022-12-29T00:54:22;4.97;;;1.00;;
32533;SDS011;18973;48.580;8.912;2022-12-29T00:56:49;1.30;;;1.20;;
32533;SDS011;18973;48.580;8.912;2022-12-29T00:59:16;0.98;;;0.98;;
32533;SDS011;18973;48.580;8.912;2022-12-29T01:01:42;1.10;;;1.10;;
32533;SDS011;18973;48.580;8.912;2022-12-29T01:04:08;0.90;;;0.90;;
32533;SDS011;18973;48.580;8.912;2022-12-29T01:06:35;2.17;;;1.10;;
32533;SDS011;18973;48.580;8.912;2022-12-29T01:09:02;0.80;;;0.80;;
32533;SDS011;18973;48.580;8.912;2022-12-29T01:14:16;1.70;;;1.60;;
32533;SDS011;18973;48.580;8.912;2022-12-29T01:16:42;0.90;;;0.90;;
32533;SDS011;18973;48.580;8.912;2022-12-29T01:19:08;1.75;;;1.10;;
32533;SDS011;18973;48.580;8.912;2022-12-29T01:21:34;3.13;;;0.90;;
32533;SDS011;18973;48.580;8.912;2022-12-29T01:24:00;1.27;;;1.20;;
32533;SDS011;18973;48.580;8.912;2022-12-29T01:26:26;0.80;;;0.80;;
32533;SDS011;18973;48.580;8.912;2022-12-29T01:28:51;1.15;;;1.05;;
32533;SDS011;18973;48.580;8.912;2022-12-29T01:31:17;0.75;;;0.75;;
32533;SDS011;18973;48.580;8.912;2022-12-29T01:33:43;1.00;;;1.00;;
32533;SDS011;18973;48.580;8.912;2022-12-29T01:36:10;1.38;;;1.35;;
32533;SDS011;18973;48.580;8.912;2022-12-29T01:38:37;1.40;;;1.30;;
32533;SDS011;18973;48.580;8.912;2022-12-29T01:41:04;0.80;;;0.80;;
32533;SDS011;18973;48.580;8.912;2022-12-29T01:46:58;1.02;;;1.02;;
32533;SDS011;18973;48.580;8.912;2022-12-29T01:51:30;0.70;;;0.70;;
32533;SDS011;18973;48.580;8.912;2022-12-29T01:53:58;0.60;;;0.60;;
32533;SDS011;18973;48.580;8.912;2022-12-29T01:56:29;1.00;;;0.90;;
32533;SDS011;18973;48.580;8.912;2022-12-29T01:58:56;2.05;;;0.80;;
32533;SDS011;18973;48.580;8.912;2022-12-29T02:01:29;1.08;;;0.98;;
32533;SDS011;18973;48.580;8.912;2022-12-29T02:03:54;6.85;;;1.67;;
32533;SDS011;18973;48.580;8.912;2022-12-29T02:06:25;1.63;;;0.85;;
32533;SDS011;18973;48.580;8.912;2022-12-29T02:08:57;1.38;;;1.27;;
32533;SDS011;18973;48.580;8.912;2022-12-29T02:11:25;1.15;;;1.10;;
32533;SDS011;18973;48.580;8.912;2022-12-29T02:13:53;0.73;;;0.73;;
32533;SDS011;18973;48.580;8.912;2022-12-29T02:24:45;1.65;;;1.55;;
32533;SDS011;18973;48.580;8.912;2022-12-29T02:38:33;0.50;;;0.50;;
32533;SDS011;18973;48.580;8.912;2022-12-29T02:41:36;0.80;;;0.80;;
32533;SDS011;18973;48.580;8.912;2022-12-29T02:44:09;0.70;;;0.70;;
32533;SDS011;18973;48.580;8.912;2022-12-29T02:46:53;0.68;;;0.68;;
32533;SDS011;18973;48.580;8.912;2022-12-29T02:52:02;1.00;;;1.00;;
32533;SDS011;18973;48.580;8.912;2022-12-29T02:54:38;1.20;;;1.10;;
32533;SDS011;18973;48.580;8.912;2022-12-29T02:57:09;0.60;;;0.60;;
32533;SDS011;18973;48.580;8.912;2022-12-29T02:59:36;0.80;;;0.80;;
32533;SDS011;18973;48.580;8.912;2022-12-29T03:13:01;0.60;;;0.60;;
32533;SDS011;18973;48.580;8.912;2022-12-29T03:15:48;0.90;;;0.90;;
32533;SDS011;18973;48.580;8.912;2022-12-29T03:21:09;0.80;;;0.80;;
32533;SDS011;18973;48.580;8.912;2022-12-29T03:23:42;0.63;;;0.63;;
32533;SDS011;18973;48.580;8.912;2022-12-29T03:26:12;0.95;;;0.88;;
32533;SDS011;18973;48.580;8.912;2022-12-29T03:28:51;0.75;;;0.75;;
32533;SDS011;18973;48.580;8.912;2022-12-29T03:31:18;0.65;;;0.60;;
32533;SDS011;18973;48.580;8.912;2022-12-29T03:33:46;0.70;;;0.70;;
32533;SDS011;18973;48.580;8.912;2022-12-29T03:36:16;0.70;;;0.70;;
32533;SDS011;18973;48.580;8.912;2022-12-29T03:38:55;0.60;;;0.60;;
32533;SDS011;18973;48.580;8.912;2022-12-29T03:41:28;1.30;;;0.90;;
32533;SDS011;18973;48.580;8.912;2022-12-29T03:43:56;0.70;;;0.70;;
32533;SDS011;18973;48.580;8.912;2022-12-29T03:46:22;0.65;;;0.65;;
32533;SDS011;18973;48.580;8.912;2022-12-29T03:48:48;1.48;;;0.70;;
32533;SDS011;18973;48.580;8.912;2022-12-29T03:51:13;0.70;;;0.70;;
32533;SDS011;18973;48.580;8.912;2022-12-29T03:53:39;0.80;;;0.80;;
32533;SDS011;18973;48.580;8.912;2022-12-29T03:56:05;0.80;;;0.80;;
32533;SDS011;18973;48.580;8.912;2022-12-29T03:58:31;0.85;;;0.82;;
32533;SDS011;18973;48.580;8.912;2022-12-29T04:00:56;1.52;;;0.88;;
32533;SDS011;18973;48.580;8.912;2022-12-29T04:03:22;0.70;;;0.70;;
32533;SDS011;18973;48.580;8.912;2022-12-29T04:05:48;0.80;;;0.77;;
32533;SDS011;18973;48.580;8.912;2022-12-29T04:08:13;1.35;;;0.82;;
32533;SDS011;18973;48.580;8.912;2022-12-29T04:10:39;0.75;;;0.75;;
32533;SDS011;18973;48.580;8.912;2022-12-29T04:13:05;0.65;;;0.65;;
32533;SDS011;18973;48.580;8.912;2022-12-29T04:15:31;1.15;;;1.15;;
32533;SDS011;18973;48.580;8.912;2022-12-29T04:17:56;0.85;;;0.85;;
32533;SDS011;18973;48.580;8.912;2022-12-29T04:20:22;2.65;;;0.95;;
32533;SDS011;18973;48.580;8.912;2022-12-29T04:23:06;0.82;;;0.82;;
32533;SDS011;18973;48.580;8.912;2022-12-29T04:25:32;9.98;;;1.25;;
32533;SDS011;18973;48.580;8.912;2022-12-29T04:27:59;0.90;;;0.90;;
32533;SDS011;18973;48.580;8.912;2022-12-29T04:30:25;0.60;;;0.52;;
32533;SDS011;18973;48.580;8.912;2022-12-29T04:32:50;2.78;;;0.90;;
32533;SDS011;18973;48.580;8.912;2022-12-29T04:35:16;0.90;;;0.90;;
32533;SDS011;18973;48.580;8.912;2022-12-29T04:37:42;0.95;;;0.82;;
32533;SDS011;18973;48.580;8.912;2022-12-29T04:40:08;0.60;;;0.60;;
32533;SDS011;18973;48.580;8.912;2022-12-29T04:42:34;1.38;;;0.90;;
32533;SDS011;18973;48.580;8.912;2022-12-29T04:45:00;0.93;;;0.93;;
32533;SDS011;18973;48.580;8.912;2022-12-29T04:47:25;1.23;;;1.23;;
32533;SDS011;18973;48.580;8.912;2022-12-29T04:49:51;1.00;;;0.90;;
32533;SDS011;18973;48.580;8.912;2022-12-29T04:52:17;1.35;;;1.25;;
32533;SDS011;18973;48.580;8.912;2022-12-29T04:54:42;0.65;;;0.65;;
32533;SDS011;18973;48.580;8.912;2022-12-29T04:57:08;1.00;;;1.00;;
32533;SDS011;18973;48.580;8.912;2022-12-29T04:59:33;0.80;;;0.80;;
32533;SDS011;18973;48.580;8.912;2022-12-29T05:01:59;0.90;;;0.90;;
32533;SDS011;18973;48.580;8.912;2022-12-29T05:04:25;0.98;;;0.98;;
32533;SDS011;18973;48.580;8.912;2022-12-29T05:06:50;0.85;;;0.85;;
32533;SDS011;18973;48.580;8.912;2022-12-29T05:09:16;0.80;;;0.80;;
32533;SDS011;18973;48.580;8.912;2022-12-29T05:11:42;0.93;;;0.93;;
32533;SDS011;18973;48.580;8.912;2022-12-29T05:14:07;1.48;;;0.82;;
32533;SDS011;18973;48.580;8.912;2022-12-29T05:16:33;0.98;;;0.90;;
32533;SDS011;18973;48.580;8.912;2022-12-29T05:18:59;1.00;;;0.90;;
32533;SDS011;18973;48.580;8.912;2022-12-29T05:21:24;4.38;;;1.15;;
32533;SDS011;18973;48.580;8.912;2022-12-29T05:23:50;0.82;;;0.82;;
32533;SDS011;18973;48.580;8.912;2022-12-29T05:26:16;0.70;;;0.70;;
32533;SDS011;18973;48.580;8.912;2022-12-29T05:28:41;0.88;;;0.85;;
32533;SDS011;18973;48.580;8.912;2022-12-29T05:31:07;1.52;;;1.42;;
32533;SDS011;18973;48.580;8.912;2022-12-29T05:33:33;1.42;;;1.33;;
32533;SDS011;18973;48.580;8.912;2022-12-29T05:36:03;2.17;;;0.85;;
32533;SDS011;18973;48.580;8.912;2022-12-29T05:38:33;0.95;;;0.95;;
32533;SDS011;18973;48.580;8.912;2022-12-29T05:40:59;0.85;;;0.85;;
32533;SDS011;18973;48.580;8.912;2022-12-29T05:43:25;1.45;;;0.80;;
32533;SDS011;18973;48.580;8.912;2022-12-29T05:45:51;0.80;;;0.80;;
32533;SDS011;18973;48.580;8.912;2022-12-29T05:48:17;1.10;;;1.10;;
32533;SDS011;18973;48.580;8.912;2022-12-29T05:50:46;0.70;;;0.70;;
32533;SDS011;18973;48.580;8.912;2022-12-29T05:53:15;0.93;;;0.88;;
32533;SDS011;18973;48.580;8.912;2022-12-29T05:55:42;0.85;;;0.85;;
32533;SDS011;18973;48.580;8.912;2022-12-29T05:58:08;0.73;;;0.73;;
32533;SDS011;18973;48.580;8.912;2022-12-29T06:00:34;1.10;;;1.02;;
32533;SDS011;18973;48.580;8.912;2022-12-29T06:03:00;1.00;;;1.00;;
32533;SDS011;18973;48.580;8.912;2022-12-29T06:05:25;1.33;;;0.98;;
32533;SDS011;18973;48.580;8.912;2022-12-29T06:07:51;1.05;;;0.93;;
32533;SDS011;18973;48.580;8.912;2022-12-29T06:10:17;0.60;;;0.60;;
32533;SDS011;18973;48.580;8.912;2022-12-29T06:12:42;1.23;;;1.23;;
32533;SDS011;18973;48.580;8.912;2022-12-29T06:15:08;1.52;;;1.20;;
32533;SDS011;18973;48.580;8.912;2022-12-29T06:17:34;1.00;;;1.00;;
32533;SDS011;18973;48.580;8.912;2022-12-29T06:20:01;0.68;;;0.68;;
32533;SDS011;18973;48.580;8.912;2022-12-29T06:22:27;0.98;;;0.98;;
32533;SDS011;18973;48.580;8.912;2022-12-29T06:24:52;1.10;;;0.85;;
32533;SDS011;18973;48.580;8.912;2022-12-29T06:27:18;0.70;;;0.70;;
32533;SDS011;18973;48.580;8.912;2022-12-29T06:29:44;0.70;;;0.70;;
32533;SDS011;18973;48.580;8.912;2022-12-29T06:32:09;4.07;;;2.38;;
32533;SDS011;18973;48.580;8.912;2022-12-29T06:34:35;0.90;;;0.90;;
32533;SDS011;18973;48.580;8.912;2022-12-29T06:37:01;1.15;;;0.88;;
32533;SDS011;18973;48.580;8.912;2022-12-29T06:39:27;12.68;;;7.82;;
32533;SDS011;18973;48.580;8.912;2022-12-29T06:41:52;6.57;;;4.22;;
32533;SDS011;18973;48.580;8.912;2022-12-29T06:44:20;1.15;;;1.15;;
32533;SDS011;18973;48.580;8.912;2022-12-29T06:46:46;0.93;;;0.90;;
32533;SDS011;18973;48.580;8.912;2022-12-29T06:49:13;1.92;;;1.33;;
32533;SDS011;18973;48.580;8.912;2022-12-29T06:51:39;1.38;;;1.27;;
32533;SDS011;18973;48.580;8.912;2022-12-29T06:54:05;1.17;;;1.17;;
32533;SDS011;18973;48.580;8.912;2022-12-29T06:56:31;0.98;;;0.93;;
32533;SDS011;18973;48.580;8.912;2022-12-29T06:58:56;1.48;;;1.05;;
32533;SDS011;18973;48.580;8.912;2022-12-29T07:01:25;1.00;;;0.98;;
32533;SDS011;18973;48.580;8.912;2022-12-29T07:03:50;1.52;;;0.70;;
32533;SDS011;18973;48.580;8.912;2022-12-29T07:06:16;0.88;;;0.80;;
32533;SDS011;18973;48.580;8.912;2022-12-29T07:08:42;0.77;;;0.77;;
32533;SDS011;18973;48.580;8.912;2022-12-29T07:11:07;1.10;;;0.98;;
32533;SDS011;18973;48.580;8.912;2022-12-29T07:13:33;1.15;;;0.60;;
32533;SDS011;18973;48.580;8.912;2022-12-29T07:15:59;1.30;;;1.20;;
32533;SDS011;18973;48.580;8.912;2022-12-29T07:18:29;0.85;;;0.85;;
32533;SDS011;18973;48.580;8.912;2022-12-29T07:20:55;0.77;;;0.77;;
32533;SDS011;18973;48.580;8.912;2022-12-29T07:23:20;2.75;;;0.95;;
32533;SDS011;18973;48.580;8.912;2022-12-29T07:25:46;1.23;;;1.13;;
32533;SDS011;18973;48.580;8.912;2022-12-29T07:28:12;2.15;;;0.82;;
32533;SDS011;18973;48.580;8.912;2022-12-29T07:30:38;1.75;;;1.17;;
32533;SDS011;18973;48.580;8.912;2022-12-29T07:33:03;2.67;;;1.35;;
32533;SDS011;18973;48.580;8.912;2022-12-29T07:35:29;0.70;;;0.70;;
32533;SDS011;18973;48.580;8.912;2022-12-29T07:37:55;0.80;;;0.80;;
32533;SDS011;18973;48.580;8.912;2022-12-29T07:40:20;1.15;;;1.05;;
32533;SDS011;18973;48.580;8.912;2022-12-29T07:42:46;0.63;;;0.63;;
32533;SDS011;18973;48.580;8.912;2022-12-29T07:45:12;2.17;;;0.93;;
32533;SDS011;18973;48.580;8.912;2022-12-29T07:47:37;1.15;;;0.85;;
32533;SDS011;18973;48.580;8.912;2022-12-29T07:50:03;0.90;;;0.90;;
32533;SDS011;18973;48.580;8.912;2022-12-29T07:52:29;1.13;;;1.10;;
32533;SDS011;18973;48.580;8.912;2022-12-29T07:54:55;2.13;;;0.88;;
32533;SDS011;18973;48.580;8.912;2022-12-29T07:57:21;0.82;;;0.82;;
32533;SDS011;18973;48.580;8.912;2022-12-29T07:59:46;0.80;;;0.80;;
32533;SDS011;18973;48.580;8.912;2022-12-29T08:02:12;0.90;;;0.90;;
32533;SDS011;18973;48.580;8.912;2022-12-29T08:04:38;0.88;;;0.88;;
32533;SDS011;18973;48.580;8.912;2022-12-29T08:07:04;1.38;;;1.27;;
32533;SDS011;18973;48.580;8.912;2022-12-29T08:09:29;1.15;;;1.00;;
32533;SDS011;18973;48.580;8.912;2022-12-29T08:11:55;1.23;;;1.05;;
32533;SDS011;18973;48.580;8.912;2022-12-29T08:14:21;2.20;;;0.90;;
32533;SDS011;18973;48.580;8.912;2022-12-29T08:16:46;0.80;;;0.80;;
32533;SDS011;18973;48.580;8.912;2022-12-29T08:19:12;0.70;;;0.70;;
32533;SDS011;18973;48.580;8.912;2022-12-29T08:21:39;1.58;;;1.48;;
32533;SDS011;18973;48.580;8.912;2022-12-29T08:24:05;0.80;;;0.80;;
32533;SDS011;18973;48.580;8.912;2022-12-29T08:26:31;0.80;;;0.80;;
32533;SDS011;18973;48.580;8.912;2022-12-29T08:28:57;1.15;;;1.00;;
32533;SDS011;18973;48.580;8.912;2022-12-29T08:31:22;0.95;;;0.95;;
32533;SDS011;18973;48.580;8.912;2022-12-29T08:33:49;0.75;;;0.75;;
32533;SDS011;18973;48.580;8.912;2022-12-29T08:36:15;0.70;;;0.70;;
32533;SDS011;18973;48.580;8.912;2022-12-29T08:38:41;2.50;;;2.30;;
32533;SDS011;18973;48.580;8.912;2022-12-29T08:41:06;0.73;;;0.73;;
32533;SDS011;18973;48.580;8.912;2022-12-29T08:43:32;0.70;;;0.70;;
32533;SDS011;18973;48.580;8.912;2022-12-29T08:45:58;1.05;;;1.02;;
32533;SDS011;18973;48.580;8.912;2022-12-29T08:48:24;0.60;;;0.60;;
32533;SDS011;18973;48.580;8.912;2022-12-29T08:50:50;5.68;;;0.93;;
32533;SDS011;18973;48.580;8.912;2022-12-29T08:53:16;0.93;;;0.85;;
32533;SDS011;18973;48.580;8.912;2022-12-29T08:55:46;0.50;;;0.50;;
32533;SDS011;18973;48.580;8.912;2022-12-29T08:58:19;0.63;;;0.63;;
32533;SDS011;18973;48.580;8.912;2022-12-29T09:00:45;1.65;;;1.55;;
32533;SDS011;18973;48.580;8.912;2022-12-29T09:03:11;0.60;;;0.60;;
32533;SDS011;18973;48.580;8.912;2022-12-29T09:05:36;0.80;;;0.80;;
32533;SDS011;18973;48.580;8.912;2022-12-29T09:08:02;1.05;;;0.85;;
32533;SDS011;18973;48.580;8.912;2022-12-29T09:10:29;0.60;;;0.60;;
32533;SDS011;18973;48.580;8.912;2022-12-29T09:12:55;0.98;;;0.98;;
32533;SDS011;18973;48.580;8.912;2022-12-29T09:15:21;5.93;;;1.00;;
32533;SDS011;18973;48.580;8.912;2022-12-29T09:17:46;1.15;;;0.88;;
32533;SDS011;18973;48.580;8.912;2022-12-29T09:20:18;0.68;;;0.68;;
32533;SDS011;18973;48.580;8.912;2022-12-29T09:22:44;0.70;;;0.70;;
32533;SDS011;18973;48.580;8.912;2022-12-29T09:25:11;0.80;;;0.80;;
32533;SDS011;18973;48.580;8.912;2022-12-29T09:27:37;1.45;;;0.77;;
32533;SDS011;18973;48.580;8.912;2022-12-29T09:30:05;0.77;;;0.75;;
32533;SDS011;18973;48.580;8.912;2022-12-29T09:32:32;3.30;;;1.00;;
32533;SDS011;18973;48.580;8.912;2022-12-29T09:34:58;0.70;;;0.70;;
32533;SDS011;18973;48.580;8.912;2022-12-29T09:37:24;0.63;;;0.63;;
32533;SDS011;18973;48.580;8.912;2022-12-29T09:39:50;0.50;;;0.50;;
32533;SDS011;18973;48.580;8.912;2022-12-29T09:47:42;0.50;;;0.50;;
32533;SDS011;18973;48.580;8.912;2022-12-29T09:50:42;0.50;;;0.50;;
32533;SDS011;18973;48.580;8.912;2022-12-29T09:56:17;0.80;;;0.65;;
32533;SDS011;18973;48.580;8.912;2022-12-29T09:59:10;0.90;;;0.90;;
32533;SDS011;18973;48.580;8.912;2022-12-29T10:02:32;0.73;;;0.60;;
32533;SDS011;18973;48.580;8.912;2022-12-29T10:04:38;0.63;;;0.63;;
32533;SDS011;18973;48.580;8.912;2022-12-29T10:07:10;0.57;;;0.57;;
32533;SDS011;18973;48.580;8.912;2022-12-29T10:23:47;0.75;;;0.75;;
32533;SDS011;18973;48.580;8.912;2022-12-29T10:26:17;0.52;;;0.52;;
32533;SDS011;18973;48.580;8.912;2022-12-29T10:28:59;2.97;;;0.63;;
32533;SDS011;18973;48.580;8.912;2022-12-29T10:31:32;1.08;;;0.65;;
32533;SDS011;18973;48.580;8.912;2022-12-29T10:34:03;0.60;;;0.60;;
32533;SDS011;18973;48.580;8.912;2022-12-29T10:36:41;0.90;;;0.68;;
32533;SDS011;18973;48.580;8.912;2022-12-29T10:39:28;0.90;;;0.80;;
32533;SDS011;18973;48.580;8.912;2022-12-29T10:44:49;1.13;;;1.00;;
32533;SDS011;18973;48.580;8.912;2022-12-29T10:47:17;0.57;;;0.57;;
32533;SDS011;18973;48.580;8.912;2022-12-29T10:49:46;0.50;;;0.50;;
32533;SDS011;18973;48.580;8.912;2022-12-29T10:52:14;0.80;;;0.80;;
32533;SDS011;18973;48.580;8.912;2022-12-29T10:54:53;0.50;;;0.50;;
32533;SDS011;18973;48.580;8.912;2022-12-29T11:00:13;0.50;;;0.50;;
32533;SDS011;18973;48.580;8.912;2022-12-29T11:05:52;0.60;;;0.60;;
32533;SDS011;18973;48.580;8.912;2022-12-29T11:08:24;0.85;;;0.85;;
32533;SDS011;18973;48.580;8.912;2022-12-29T11:10:59;0.80;;;0.80;;
32533;SDS011;18973;48.580;8.912;2022-12-29T11:13:30;0.60;;;0.60;;
32533;SDS011;18973;48.580;8.912;2022-12-29T11:15:57;2.15;;;1.05;;
32533;SDS011;18973;48.580;8.912;2022-12-29T11:18:37;0.63;;;0.63;;
32533;SDS011;18973;48.580;8.912;2022-12-29T11:21:25;0.60;;;0.55;;
32533;SDS011;18973;48.580;8.912;2022-12-29T11:26:28;0.65;;;0.65;;
32533;SDS011;18973;48.580;8.912;2022-12-29T11:29:08;0.73;;;0.50;;
32533;SDS011;18973;48.580;8.912;2022-12-29T11:31:51;1.95;;;0.60;;
32533;SDS011;18973;48.580;8.912;2022-12-29T11:34:25;1.05;;;0.70;;
32533;SDS011;18973;48.580;8.912;2022-12-29T11:36:59;0.60;;;0.60;;
32533;SDS011;18973;48.580;8.912;2022-12-29T11:42:06;0.57;;;0.57;;
32533;SDS011;18973;48.580;8.912;2022-12-29T11:44:45;2.45;;;0.55;;
32533;SDS011;18973;48.580;8.912;2022-12-29T11:47:23;0.50;;;0.50;;
32533;SDS011;18973;48.580;8.912;2022-12-29T11:49:59;1.92;;;1.08;;
32533;SDS011;18973;48.580;8.912;2022-12-29T11:52:28;1.45;;;1.08;;
32533;SDS011;18973;48.580;8.912;2022-12-29T11:54:58;0.55;;;0.55;;
32533;SDS011;18973;48.580;8.912;2022-12-29T11:57:27;0.70;;;0.50;;
32533;SDS011;18973;48.580;8.912;2022-12-29T11:59:57;1.75;;;0.60;;
32533;SDS011;18973;48.580;8.912;2022-12-29T12:05:28;0.68;;;0.68;;
32533;SDS011;18973;48.580;8.912;2022-12-29T12:08:31;1.25;;;0.98;;
32533;SDS011;18973;48.580;8.912;2022-12-29T12:11:29;0.80;;;0.68;;
32533;SDS011;18973;48.580;8.912;2022-12-29T12:17:06;3.00;;;1.58;;
32533;SDS011;18973;48.580;8.912;2022-12-29T12:19:41;2.55;;;0.93;;
32533;SDS011;18973;48.580;8.912;2022-12-29T12:22:27;0.50;;;0.50;;
32533;SDS011;18973;48.580;8.912;2022-12-29T12:27:38;0.52;;;0.52;;
32533;SDS011;18973;48.580;8.912;2022-12-29T12:30:13;1.23;;;0.95;;
32533;SDS011;18973;48.580;8.912;2022-12-29T12:35:11;0.82;;;0.82;;
32533;SDS011;18973;48.580;8.912;2022-12-29T12:37:52;0.60;;;0.60;;
32533;SDS011;18973;48.580;8.912;2022-12-29T13:00:18;0.55;;;0.55;;
32533;SDS011;18973;48.580;8.912;2022-12-29T13:02:55;0.45;;;0.45;;
32533;SDS011;18973;48.580;8.912;2022-12-29T13:08:39;0.80;;;0.80;;
32533;SDS011;18973;48.580;8.912;2022-12-29T13:11:54;1.10;;;0.83;;
32533;SDS011;18973;48.580;8.912;2022-12-29T13:20:43;1.00;;;0.88;;
32533;SDS011;18973;48.580;8.912;2022-12-29T13:23:26;0.70;;;0.68;;
32533;SDS011;18973;48.580;8.912;2022-12-29T13:26:20;0.98;;;0.82;;
32533;SDS011;18973;48.580;8.912;2022-12-29T13:31:43;0.50;;;0.50;;
32533;SDS011;18973;48.580;8.912;2022-12-29T13:37:24;1.67;;;0.88;;
32533;SDS011;18973;48.580;8.912;2022-12-29T13:39:55;0.68;;;0.68;;
32533;SDS011;18973;48.580;8.912;2022-12-29T13:42:24;0.90;;;0.88;;
32533;SDS011;18973;48.580;8.912;2022-12-29T13:50:25;0.70;;;0.70;;
32533;SDS011;18973;48.580;8.912;2022-12-29T13:58:46;0.50;;;0.50;;
32533;SDS011;18973;48.580;8.912;2022-12-29T14:03:52;0.80;;;0.70;;
32533;SDS011;18973;48.580;8.912;2022-12-29T14:06:21;0.73;;;0.73;;
32533;SDS011;18973;48.580;8.912;2022-12-29T14:08:56;0.43;;;0.43;;
32533;SDS011;18973;48.580;8.912;2022-12-29T14:11:24;0.73;;;0.73;;
32533;SDS011;18973;48.580;8.912;2022-12-29T14:13:59;1.40;;;0.80;;
32533;SDS011;18973;48.580;8.912;2022-12-29T14:16:43;0.63;;;0.63;;
32533;SDS011;18973;48.580;8.912;2022-12-29T14:21:39;0.75;;;0.70;;
32533;SDS011;18973;48.580;8.912;2022-12-29T14:26:53;0.45;;;0.45;;
32533;SDS011;18973;48.580;8.912;2022-12-29T14:31:54;0.98;;;0.65;;
32533;SDS011;18973;48.580;8.912;2022-12-29T14:36:55;0.85;;;0.80;;
32533;SDS011;18973;48.580;8.912;2022-12-29T14:44:30;0.60;;;0.60;;
32533;SDS011;18973;48.580;8.912;2022-12-29T14:46:58;0.70;;;0.55;;
32533;SDS011;18973;48.580;8.912;2022-12-29T14:49:27;0.70;;;0.70;;
32533;SDS011;18973;48.580;8.912;2022-12-29T14:52:06;0.93;;;0.80;;
32533;SDS011;18973;48.580;8.912;2022-12-29T14:54:45;0.70;;;0.70;;
32533;SDS011;18973;48.580;8.912;2022-12-29T14:57:18;1.63;;;1.10;;
32533;SDS011;18973;48.580;8.912;2022-12-29T14:59:47;0.65;;;0.65;;
32533;SDS011;18973;48.580;8.912;2022-12-29T15:02:19;0.85;;;0.85;;
32533;SDS011;18973;48.580;8.912;2022-12-29T15:04:48;0.90;;;0.90;;
32533;SDS011;18973;48.580;8.912;2022-12-29T15:07:15;4.22;;;0.80;;
32533;SDS011;18973;48.580;8.912;2022-12-29T15:09:50;0.60;;;0.60;;
32533;SDS011;18973;48.580;8.912;2022-12-29T15:12:37;0.70;;;0.70;;
32533;SDS011;18973;48.580;8.912;2022-12-29T15:17:47;0.80;;;0.80;;
32533;SDS011;18973;48.580;8.912;2022-12-29T15:22:50;0.65;;;0.60;;
32533;SDS011;18973;48.580;8.912;2022-12-29T15:25:19;0.65;;;0.65;;
32533;SDS011;18973;48.580;8.912;2022-12-29T15:27:52;0.70;;;0.70;;
32533;SDS011;18973;48.580;8.912;2022-12-29T15:30:21;0.70;;;0.70;;
32533;SDS011;18973;48.580;8.912;2022-12-29T15:32:47;0.60;;;0.60;;
32533;SDS011;18973;48.580;8.912;2022-12-29T15:35:32;0.68;;;0.68;;
32533;SDS011;18973;48.580;8.912;2022-12-29T15:40:29;0.60;;;0.60;;
32533;SDS011;18973;48.580;8.912;2022-12-29T15:45:30;0.60;;;0.60;;
32533;SDS011;18973;48.580;8.912;2022-12-29T15:47:59;0.85;;;0.77;;
32533;SDS011;18973;48.580;8.912;2022-12-29T15:50:29;1.20;;;1.13;;
32533;SDS011;18973;48.580;8.912;2022-12-29T15:53:09;0.88;;;0.68;;
32533;SDS011;18973;48.580;8.912;2022-12-29T15:55:38;1.05;;;0.98;;
32533;SDS011;18973;48.580;8.912;2022-12-29T15:58:17;0.80;;;0.80;;
32533;SDS011;18973;48.580;8.912;2022-12-29T16:00:49;0.95;;;0.95;;
32533;SDS011;18973;48.580;8.912;2022-12-29T16:03:21;3.80;;;2.20;;
32533;SDS011;18973;48.580;8.912;2022-12-29T16:05:51;6.30;;;2.92;;
32533;SDS011;18973;48.580;8.912;2022-12-29T16:10:54;5.32;;;2.63;;
32533;SDS011;18973;48.580;8.912;2022-12-29T16:13:26;8.68;;;3.75;;
32533;SDS011;18973;48.580;8.912;2022-12-29T16:15:52;1.83;;;1.33;;
32533;SDS011;18973;48.580;8.912;2022-12-29T16:18:26;0.90;;;0.85;;
32533;SDS011;18973;48.580;8.912;2022-12-29T16:20:55;6.25;;;1.20;;
32533;SDS011;18973;48.580;8.912;2022-12-29T16:23:26;1.23;;;1.17;;
32533;SDS011;18973;48.580;8.912;2022-12-29T16:25:53;1.00;;;1.00;;
32533;SDS011;18973;48.580;8.912;2022-12-29T16:28:23;1.65;;;1.10;;
32533;SDS011;18973;48.580;8.912;2022-12-29T16:30:57;1.00;;;0.90;;
32533;SDS011;18973;48.580;8.912;2022-12-29T16:36:26;1.33;;;1.23;;
32533;SDS011;18973;48.580;8.912;2022-12-29T16:39:09;2.72;;;1.58;;
32533;SDS011;18973;48.580;8.912;2022-12-29T16:41:49;2.53;;;1.77;;
32533;SDS011;18973;48.580;8.912;2022-12-29T16:44:19;2.40;;;2.05;;
32533;SDS011;18973;48.580;8.912;2022-12-29T16:49:38;6.60;;;1.65;;
32533;SDS011;18973;48.580;8.912;2022-12-29T16:52:12;2.35;;;1.58;;
32533;SDS011;18973;48.580;8.912;2022-12-29T16:54:42;2.22;;;1.80;;
32533;SDS011;18973;48.580;8.912;2022-12-29T16:57:29;7.03;;;3.30;;
32533;SDS011;18973;48.580;8.912;2022-12-29T17:00:03;9.55;;;4.93;;
32533;SDS011;18973;48.580;8.912;2022-12-29T17:02:31;123.90;;;50.58;;
32533;SDS011;18973;48.580;8.912;2022-12-29T17:04:59;65.65;;;24.35;;
32533;SDS011;18973;48.580;8.912;2022-12-29T17:07:26;40.45;;;17.15;;
32533;SDS011;18973;48.580;8.912;2022-12-29T17:09:52;93.00;;;35.47;;
32533;SDS011;18973;48.580;8.912;2022-12-29T17:12:22;51.83;;;22.27;;
32533;SDS011;18973;48.580;8.912;2022-12-29T17:14:54;46.05;;;18.50;;
32533;SDS011;18973;48.580;8.912;2022-12-29T17:17:25;68.40;;;29.25;;
32533;SDS011;18973;48.580;8.912;2022-12-29T17:20:05;16.45;;;8.77;;
32533;SDS011;18973;48.580;8.912;2022-12-29T17:22:41;6.60;;;3.78;;
32533;SDS011;18973;48.580;8.912;2022-12-29T17:25:11;5.28;;;2.13;;
32533;SDS011;18973;48.580;8.912;2022-12-29T17:30:16;3.38;;;1.77;;
32533;SDS011;18973;48.580;8.912;2022-12-29T17:32:51;1.48;;;1.38;;
32533;SDS011;18973;48.580;8.912;2022-12-29T17:35:19;1.60;;;1.50;;
32533;SDS011;18973;48.580;8.912;2022-12-29T17:37:47;1.65;;;1.50;;
32533;SDS011;18973;48.580;8.912;2022-12-29T17:40:18;6.93;;;2.97;;
32533;SDS011;18973;48.580;8.912;2022-12-29T17:42:47;2.22;;;1.95;;
32533;SDS011;18973;48.580;8.912;2022-12-29T17:45:20;1.92;;;1.80;;
32533;SDS011;18973;48.580;8.912;2022-12-29T17:47:49;1.90;;;1.75;;
32533;SDS011;18973;48.580;8.912;2022-12-29T17:50:16;5.32;;;2.55;;
32533;SDS011;18973;48.580;8.912;2022-12-29T17:52:45;9.13;;;2.90;;
32533;SDS011;18973;48.580;8.912;2022-12-29T17:55:23;4.15;;;2.92;;
32533;SDS011;18973;48.580;8.912;2022-12-29T17:57:50;6.53;;;3.60;;
32533;SDS011;18973;48.580;8.912;2022-12-29T18:02:43;4.60;;;1.95;;
32533;SDS011;18973;48.580;8.912;2022-12-29T18:05:19;3.08;;;2.10;;
32533;SDS011;18973;48.580;8.912;2022-12-29T18:07:47;2.28;;;1.58;;